Time;durP1;ratioP1;P1;durP2;ratioP2;P2;SDS_P1;SDS_P2;PMS_P1;PMS_P2;Temp;Humidity;BMP_temperature;BMP_pressure;BME280_temperature;BME280_humidity;BME280_pressure;Samples;Min_cycle;Max_cycle;Signal;HPM_P1;HPM_P2
2021/03/13 00:00:43;;;;;;;10.27;3.70;;;;;;;2.58;87.50;99343.94;5070904;28;20059;-64
2021/03/13 00:03:08;;;;;;;16.67;4.95;;;;;;;2.55;87.66;99346.84;5053140;28;20119;-64
2021/03/13 00:05:37;;;;;;;7.03;3.33;;;;;;;2.54;87.57;99353.94;5070939;28;20059;-64
2021/03/13 00:08:03;;;;;;;15.82;4.00;;;;;;;2.51;87.33;99335.78;5070546;28;20143;-64
2021/03/13 00:10:29;;;;;;;7.32;3.90;;;;;;;2.57;87.35;99342.25;5053262;28;20041;-64
2021/03/13 00:12:54;;;;;;;10.57;4.38;;;;;;;2.59;87.09;99342.94;5070718;28;20054;-65
2021/03/13 00:15:20;;;;;;;12.57;3.53;;;;;;;2.57;86.84;99344.06;5070710;28;20047;-64
2021/03/13 00:17:47;;;;;;;9.17;3.17;;;;;;;2.51;87.19;99337.59;5052754;28;20036;-64
2021/03/13 00:20:18;;;;;;;9.98;3.40;;;;;;;2.52;86.95;99344.50;5070894;28;20352;-64
2021/03/13 00:22:44;;;;;;;7.80;3.20;;;;;;;2.49;87.08;99332.47;5056790;28;20044;-65
2021/03/13 00:25:10;;;;;;;9.27;3.22;;;;;;;2.48;87.04;99338.72;5074275;28;20040;-64
2021/03/13 00:27:45;;;;;;;14.00;4.15;;;;;;;2.48;87.04;99337.88;5073942;28;20119;-64
2021/03/13 00:30:19;;;;;;;6.80;3.00;;;;;;;2.50;86.98;99338.56;5074127;28;20044;-64
2021/03/13 00:32:46;;;;;;;12.77;3.35;;;;;;;2.50;86.76;99331.47;5056680;28;20048;-64
2021/03/13 00:35:12;;;;;;;10.38;4.07;;;;;;;2.48;86.92;99338.72;5056672;28;20458;-64
2021/03/13 00:37:38;;;;;;;11.10;3.72;;;;;;;2.41;87.05;99329.72;5073827;28;20119;-64
2021/03/13 00:40:06;;;;;;;7.25;3.35;;;;;;;2.37;87.15;99332.81;5056473;28;20538;-64
2021/03/13 00:42:32;;;;;;;13.10;4.50;;;;;;;2.36;87.33;99331.94;5056084;28;20041;-64
2021/03/13 00:44:57;;;;;;;9.18;5.00;;;;;;;2.37;87.18;99331.00;5074094;28;20101;-64
2021/03/13 00:47:23;;;;;;;9.33;4.50;;;;;;;2.37;87.35;99333.63;5056611;28;20059;-64
2021/03/13 00:49:48;;;;;;;10.97;4.30;;;;;;;2.33;87.34;99333.06;5073652;28;20115;-64
2021/03/13 00:52:13;;;;;;;17.17;4.13;;;;;;;2.36;87.02;99344.28;5039719;28;20032;-64
2021/03/13 00:54:39;;;;;;;13.00;5.23;;;;;;;2.33;87.34;99340.16;5073786;28;20039;-64
2021/03/13 00:57:05;;;;;;;13.73;4.75;;;;;;;2.28;87.48;99345.84;5056031;28;20033;-64
2021/03/13 00:59:30;;;;;;;9.63;4.35;;;;;;;2.27;87.58;99332.81;5055744;28;20517;-64
2021/03/13 01:01:56;;;;;;;12.45;4.63;;;;;;;2.29;87.44;99339.63;5056072;28;20028;-65
2021/03/13 01:04:22;;;;;;;12.20;4.07;;;;;;;2.36;87.14;99341.66;5056116;28;20033;-64
2021/03/13 01:06:47;;;;;;;9.02;4.65;;;;;;;2.37;86.98;99335.44;5055845;28;20032;-65
2021/03/13 01:09:13;;;;;;;12.32;5.30;;;;;;;2.35;87.35;99342.66;5055709;28;20032;-65
2021/03/13 01:11:39;;;;;;;10.38;4.38;;;;;;;2.41;86.60;99340.28;5055759;28;20465;-65
2021/03/13 01:14:07;;;;;;;9.80;4.05;;;;;;;2.37;86.75;99338.88;5073345;28;20037;-65
2021/03/13 01:16:39;;;;;;;10.02;3.97;;;;;;;2.37;86.96;99336.25;5055922;28;20040;-65
2021/03/13 01:19:05;;;;;;;9.83;5.13;;;;;;;2.36;87.01;99336.38;5073164;28;20385;-65
2021/03/13 01:21:31;;;;;;;14.32;5.18;;;;;;;2.36;87.24;99333.75;5039269;28;20142;-65
2021/03/13 01:23:57;;;;;;;11.32;4.60;;;;;;;2.37;86.78;99338.88;5055682;28;20119;-65
2021/03/13 01:26:29;;;;;;;10.18;5.05;;;;;;;2.39;86.91;99331.69;5039716;28;20032;-65
2021/03/13 01:28:57;;;;;;;11.50;4.47;;;;;;;2.39;86.67;99323.78;5055295;28;20454;-65
2021/03/13 01:31:35;;;;;;;8.20;3.90;;;;;;;2.38;86.75;99332.63;5054914;28;20082;-65
2021/03/13 01:34:01;;;;;;;9.95;4.95;;;;;;;2.39;86.83;99339.59;5054840;28;20043;-65
2021/03/13 01:36:27;;;;;;;9.93;4.63;;;;;;;2.38;86.98;99337.91;5055611;28;20028;-66
2021/03/13 01:38:52;;;;;;;16.45;5.25;;;;;;;2.40;86.82;99338.59;5054865;28;20150;-66
2021/03/13 01:41:19;;;;;;;10.05;5.10;;;;;;;2.40;86.86;99325.41;5038821;28;20377;-66
2021/03/13 01:43:45;;;;;;;10.00;4.50;;;;;;;2.39;86.94;99329.03;5055276;28;20472;-66
2021/03/13 01:46:12;;;;;;;11.23;4.80;;;;;;;2.38;86.79;99323.91;5055217;28;20529;-66
2021/03/13 01:48:43;;;;;;;10.70;4.68;;;;;;;2.39;87.06;99334.31;5055149;28;20099;-67
2021/03/13 01:51:12;;;;;;;11.77;3.72;;;;;;;2.38;87.40;99322.09;5071802;28;20454;-68
2021/03/13 01:53:40;;;;;;;9.15;3.95;;;;;;;2.35;87.07;99327.66;5071575;28;20032;-67
2021/03/13 01:56:06;;;;;;;8.48;4.18;;;;;;;2.31;86.78;99323.66;5055143;28;20121;-67
2021/03/13 01:58:35;;;;;;;8.32;3.67;;;;;;;2.29;86.71;99329.09;5071412;28;20085;-67
2021/03/13 02:01:07;;;;;;;36.55;5.45;;;;;;;2.25;87.23;99322.44;5071702;28;20078;-67
2021/03/13 02:03:32;;;;;;;8.02;3.42;;;;;;;2.23;87.10;99318.28;5071534;28;20035;-68
2021/03/13 02:06:00;;;;;;;10.30;3.38;;;;;;;2.18;87.08;99316.09;5071387;28;20032;-68
2021/03/13 02:08:43;;;;;;;5.18;3.60;;;;;;;2.16;87.14;99322.47;5072154;28;20044;-68
2021/03/13 02:11:43;;;;;;;8.43;3.03;;;;;;;2.14;87.14;99327.88;5071450;28;20054;-70
2021/03/13 02:14:26;;;;;;;8.55;3.65;;;;;;;2.19;86.76;99320.38;5071158;28;20115;-68
2021/03/13 02:17:26;;;;;;;10.30;2.45;;;;;;;2.17;86.59;99318.84;5071225;28;20058;-64
2021/03/13 02:20:10;;;;;;;6.97;2.78;;;;;;;2.20;86.39;99314.16;5071282;28;20082;-64
2021/03/13 02:22:40;;;;;;;10.35;2.88;;;;;;;2.20;86.19;99313.28;5071013;28;20048;-64
2021/03/13 02:26:07;;;;;;;7.18;2.65;;;;;;;2.12;86.39;99311.38;5072086;28;20044;-64
2021/03/13 02:28:51;;;;;;;8.93;2.83;;;;;;;2.09;86.62;99320.41;5071680;28;20043;-64
2021/03/13 02:31:19;;;;;;;5.55;2.78;;;;;;;2.08;86.56;99305.59;5054500;28;20036;-68
2021/03/13 02:33:47;;;;;;;7.65;3.17;;;;;;;2.06;86.73;99320.69;5070844;28;20032;-68
2021/03/13 02:36:28;;;;;;;9.40;3.65;;;;;;;2.07;86.45;99324.97;5070974;28;20033;-68
2021/03/13 02:39:03;;;;;;;4.30;2.83;;;;;;;2.06;86.47;99318.06;5070595;28;20742;-68
2021/03/13 02:41:37;;;;;;;10.13;3.67;;;;;;;2.01;86.66;99316.81;5070736;28;20074;-68
2021/03/13 02:44:06;;;;;;;4.25;2.67;;;;;;;2.00;86.95;99308.09;5071476;28;20032;-68
2021/03/13 02:46:43;;;;;;;6.60;2.88;;;;;;;2.03;86.65;99297.28;5070771;28;20140;-67
2021/03/13 02:49:11;;;;;;;12.57;4.38;;;;;;;1.97;86.66;99318.91;5070284;28;20059;-68
2021/03/13 02:51:39;;;;;;;12.18;3.42;;;;;;;1.99;86.28;99310.84;5070696;28;20063;-68
2021/03/13 02:54:06;;;;;;;11.90;4.55;;;;;;;2.00;86.51;99313.34;5071420;28;20412;-68
2021/03/13 02:56:34;;;;;;;5.53;3.00;;;;;;;1.97;86.35;99299.66;5053643;28;20648;-68
2021/03/13 02:59:01;;;;;;;8.88;3.92;;;;;;;1.93;86.43;99301.75;5070223;28;20039;-68
2021/03/13 03:01:33;;;;;;;6.20;2.40;;;;;;;1.93;86.51;99303.56;5070577;28;20063;-68
2021/03/13 03:04:02;;;;;;;12.65;3.58;;;;;;;1.91;86.04;99298.41;5070498;28;20028;-68
2021/03/13 03:06:38;;;;;;;10.98;3.75;;;;;;;1.85;86.56;99298.97;5070344;28;20444;-68
2021/03/13 03:09:07;;;;;;;12.73;4.18;;;;;;;1.80;86.41;99296.78;5071155;28;20071;-68
2021/03/13 03:11:41;;;;;;;11.13;3.40;;;;;;;1.77;86.50;99291.78;5070479;28;20563;-67
2021/03/13 03:14:10;;;;;;;9.48;3.70;;;;;;;1.77;86.38;99290.97;5053808;28;20413;-68
2021/03/13 03:16:38;;;;;;;11.40;4.18;;;;;;;1.73;86.48;99286.97;5070293;28;20476;-67
2021/03/13 03:19:05;;;;;;;10.30;4.22;;;;;;;1.70;86.43;99282.81;5069955;28;20029;-68
2021/03/13 03:21:36;;;;;;;9.38;3.35;;;;;;;1.71;86.28;99287.13;5070356;28;20032;-68
2021/03/13 03:24:03;;;;;;;9.68;3.63;;;;;;;1.64;86.50;99281.59;5053671;28;20518;-68
2021/03/13 03:26:29;;;;;;;6.43;3.05;;;;;;;1.68;86.16;99263.69;5070242;28;20050;-68
2021/03/13 03:28:54;;;;;;;8.13;2.70;;;;;;;1.71;85.63;99270.47;5069906;28;20032;-67
2021/03/13 03:31:22;;;;;;;7.45;2.58;;;;;;;1.74;85.73;99270.22;5070081;28;20493;-68
2021/03/13 03:33:49;;;;;;;12.68;2.70;;;;;;;1.68;85.78;99272.41;5053517;28;20029;-67
2021/03/13 03:36:15;;;;;;;11.30;3.22;;;;;;;1.71;85.73;99265.22;5070513;28;20029;-67
2021/03/13 03:38:42;;;;;;;13.07;2.88;;;;;;;1.69;85.59;99260.13;5070802;28;20110;-67
2021/03/13 03:41:14;;;;;;;7.75;2.75;;;;;;;1.72;85.80;99259.00;5054264;28;20075;-67
2021/03/13 03:43:48;;;;;;;6.85;2.42;;;;;;;1.71;86.03;99259.94;5070111;28;20051;-67
2021/03/13 03:46:18;;;;;;;9.15;2.85;;;;;;;1.65;85.90;99256.09;5054004;28;20039;-67
2021/03/13 03:48:45;;;;;;;10.35;2.70;;;;;;;1.66;86.06;99250.72;5070883;28;20040;-67
2021/03/13 03:51:17;;;;;;;6.78;2.63;;;;;;;1.71;85.73;99249.44;5053313;28;20036;-67
2021/03/13 03:53:52;;;;;;;8.65;3.00;;;;;;;1.65;85.77;99254.28;5053188;28;20032;-67
2021/03/13 03:56:19;;;;;;;17.15;4.13;;;;;;;1.62;86.07;99254.59;5072910;28;20048;-67
2021/03/13 03:58:47;;;;;;;6.22;3.13;;;;;;;1.59;86.25;99254.03;5074620;28;20330;-67
2021/03/13 04:01:14;;;;;;;11.35;3.70;;;;;;;1.58;86.52;99245.31;5057191;28;20043;-67
2021/03/13 04:03:44;;;;;;;7.18;3.63;;;;;;;1.51;86.84;99243.41;5074777;28;20043;-67
2021/03/13 04:06:11;;;;;;;10.55;4.75;;;;;;;1.51;86.99;99241.59;5040488;28;20032;-67
2021/03/13 04:08:40;;;;;;;13.27;5.63;;;;;;;1.52;87.21;99245.88;5040168;28;20032;-67
2021/03/13 04:11:05;;;;;;;11.55;4.20;;;;;;;1.53;87.11;99231.75;5074489;28;20086;-67
2021/03/13 04:13:31;;;;;;;12.52;6.40;;;;;;;1.51;87.20;99238.13;5074612;28;20033;-67
2021/03/13 04:15:57;;;;;;;12.52;4.85;;;;;;;1.52;87.17;99224.81;5074510;28;20473;-67
2021/03/13 04:18:23;;;;;;;13.50;6.20;;;;;;;1.58;87.09;99219.00;5074356;28;20450;-67
2021/03/13 04:20:50;;;;;;;;;;;;;;;1.54;87.38;99216.78;5074906;28;20252;-64
2021/03/13 04:23:19;;;;;;;20.02;7.93;;;;;;;1.57;87.54;99219.13;5056837;28;19913;-64
2021/03/13 04:25:47;;;;;;;13.77;7.03;;;;;;;1.54;87.49;99207.09;5040252;28;20041;-64
2021/03/13 04:28:13;;;;;;;24.15;8.38;;;;;;;1.56;87.30;99207.78;5039874;28;20127;-64
2021/03/13 04:30:40;;;;;;;22.67;8.83;;;;;;;1.52;87.53;99190.63;5074379;28;20170;-64
2021/03/13 04:33:05;;;;;;;27.42;8.77;;;;;;;1.54;87.84;99199.22;5056466;28;20029;-64
2021/03/13 04:35:34;;;;;;;16.90;7.93;;;;;;;1.51;87.72;99196.88;5074209;28;20720;-64
2021/03/13 04:38:01;;;;;;;17.63;7.97;;;;;;;1.58;87.90;99192.69;5056103;28;20051;-64
2021/03/13 04:40:26;;;;;;;23.42;7.78;;;;;;;1.62;88.07;99180.91;5056466;28;20063;-64
2021/03/13 04:42:52;;;;;;;15.33;8.53;;;;;;;1.62;87.95;99182.72;5074033;28;20135;-64
2021/03/13 04:45:18;;;;;;;19.67;10.18;;;;;;;1.57;87.78;99180.53;5056583;28;20282;-64
2021/03/13 04:47:46;;;;;;;18.83;8.15;;;;;;;1.56;88.24;99178.84;5073641;28;20036;-64
2021/03/13 04:50:18;;;;;;;19.00;8.60;;;;;;;1.55;88.34;99165.88;5069442;28;20040;-64
2021/03/13 04:52:43;;;;;;;20.23;8.48;;;;;;;1.54;88.34;99165.00;5072805;28;20037;-64
2021/03/13 04:55:09;;;;;;;20.27;8.30;;;;;;;1.55;88.37;99163.22;5072890;28;20032;-64
2021/03/13 04:57:35;;;;;;;29.60;10.40;;;;;;;1.51;88.52;99164.47;5072646;28;20032;-64
2021/03/13 05:00:01;;;;;;;18.98;8.88;;;;;;;1.46;88.50;99163.09;5056191;28;20469;-64
2021/03/13 05:02:27;;;;;;;20.48;9.85;;;;;;;1.48;88.94;99161.16;5072800;28;20043;-64
2021/03/13 05:04:52;;;;;;;;;;;;;;;1.49;89.01;99159.34;5074101;28;20029;-64
2021/03/13 05:07:18;;;;;;;;;;;;;;;1.48;88.96;99149.81;5072856;28;20384;-64
2021/03/13 05:09:44;;;;;;;15.60;7.67;;;;;;;1.41;89.13;99139.03;5073338;28;19912;-64
2021/03/13 05:12:09;;;;;;;21.08;9.77;;;;;;;1.36;89.52;99141.28;5072593;28;20094;-64
2021/03/13 05:14:35;;;;;;;22.20;9.18;;;;;;;1.29;89.44;99139.34;5073436;28;20119;-64
2021/03/13 05:17:01;;;;;;;31.60;11.30;;;;;;;1.33;89.36;99138.09;5073458;28;20035;-64
2021/03/13 05:19:27;;;;;;;24.02;9.45;;;;;;;1.32;89.32;99133.81;5073172;28;20796;-64
2021/03/13 05:21:53;;;;;;;22.03;8.90;;;;;;;1.29;89.57;99126.19;5073255;28;20074;-64
2021/03/13 05:24:18;;;;;;;24.58;10.27;;;;;;;1.31;89.60;99132.13;5072471;28;20278;-63
2021/03/13 05:26:44;;;;;;;20.57;9.53;;;;;;;1.33;89.71;99130.19;5055721;28;20094;-67
2021/03/13 05:29:09;;;;;;;28.10;9.67;;;;;;;1.34;89.47;99127.44;5072972;28;20036;-68
2021/03/13 05:31:35;;;;;;;20.80;10.93;;;;;;;1.38;89.69;99120.06;5073285;28;20412;-68
2021/03/13 05:34:00;;;;;;;32.97;12.10;;;;;;;1.38;89.74;99115.66;5055391;28;20033;-68
2021/03/13 05:36:25;;;;;;;23.67;10.80;;;;;;;1.49;89.72;99114.66;5055350;28;20127;-68
2021/03/13 05:38:51;;;;;;;24.80;10.63;;;;;;;1.51;89.77;99104.81;5072851;28;20075;-68
2021/03/13 05:41:18;;;;;;;23.80;12.07;;;;;;;1.50;89.83;99105.78;5072086;28;20033;-68
2021/03/13 05:43:44;;;;;;;25.10;10.38;;;;;;;1.54;89.77;99101.06;5073030;28;20040;-68
2021/03/13 05:46:09;;;;;;;34.73;11.80;;;;;;;1.56;89.89;99096.50;5071929;28;20036;-68
2021/03/13 05:48:35;;;;;;;23.77;11.10;;;;;;;1.63;89.79;99094.94;5071487;28;20024;-69
2021/03/13 05:51:01;;;;;;;29.67;10.45;;;;;;;1.63;89.94;99074.72;5054955;28;20036;-68
2021/03/13 05:53:28;;;;;;;23.15;10.43;;;;;;;1.66;90.07;99077.06;5038494;28;20859;-69
2021/03/13 05:55:53;;;;;;;;;;;;;;;1.71;89.91;99081.88;5073092;28;20032;-69
2021/03/13 05:58:21;;;;;;;26.33;10.52;;;;;;;1.75;89.78;99071.88;5072350;28;19947;-69
2021/03/13 06:00:47;;;;;;;27.02;11.07;;;;;;;1.85;89.59;99065.59;5072482;28;20085;-69
2021/03/13 06:03:13;;;;;;;24.85;10.68;;;;;;;1.86;89.47;99059.34;5072484;28;20036;-69
2021/03/13 06:05:38;;;;;;;25.85;11.80;;;;;;;1.90;89.53;99059.91;5054819;28;20040;-69
2021/03/13 06:08:04;;;;;;;28.73;11.37;;;;;;;1.97;89.34;99052.25;5072189;28;20191;-69
2021/03/13 06:10:29;;;;;;;24.65;10.73;;;;;;;2.02;89.27;99052.63;5072398;28;20040;-69
2021/03/13 06:12:55;;;;;;;24.77;11.53;;;;;;;2.07;89.18;99042.47;5072404;28;20358;-68
2021/03/13 06:15:22;;;;;;;23.43;11.67;;;;;;;2.13;88.75;99033.97;5054642;28;20032;-69
2021/03/13 06:17:59;;;;;;;23.27;11.65;;;;;;;2.16;88.95;99024.94;5071518;28;20044;-69
2021/03/13 06:20:42;;;;;;;;;;;;;;;2.21;88.79;99025.31;5072541;28;20037;-69
2021/03/13 06:23:07;;;;;;;25.17;11.65;;;;;;;2.21;88.59;99015.59;5054626;28;19915;-69
2021/03/13 06:25:33;;;;;;;37.60;13.27;;;;;;;2.22;88.67;99011.16;5054543;28;20033;-69
2021/03/13 06:28:21;;;;;;;23.58;12.20;;;;;;;2.30;88.55;99004.16;5071713;28;20033;-69
2021/03/13 06:30:48;;;;;;;36.30;12.73;;;;;;;2.30;88.43;98991.00;5054454;28;20052;-69
2021/03/13 06:33:21;;;;;;;23.88;11.75;;;;;;;2.29;88.67;98985.88;5071442;28;20036;-69
2021/03/13 06:35:47;;;;;;;30.38;13.40;;;;;;;2.37;88.55;98979.88;5054365;28;20047;-69
2021/03/13 06:38:15;;;;;;;25.13;12.55;;;;;;;2.37;88.33;98983.31;5053911;28;20037;-69
2021/03/13 06:40:40;;;;;;;28.77;11.85;;;;;;;2.37;88.37;98964.88;5071845;28;20438;-69
2021/03/13 06:43:25;;;;;;;29.73;13.10;;;;;;;2.41;88.36;98957.47;5071579;28;20098;-69
2021/03/13 06:46:11;;;;;;;27.33;12.07;;;;;;;2.48;88.11;98959.38;5071731;28;20028;-69
2021/03/13 06:48:45;;;;;;;25.52;11.93;;;;;;;2.50;87.89;98957.38;5071217;28;20397;-69
2021/03/13 06:51:22;;;;;;;24.88;12.52;;;;;;;2.56;87.94;98947.22;5054110;28;20036;-69
2021/03/13 06:54:03;;;;;;;34.85;13.20;;;;;;;2.56;87.98;98941.97;5053838;28;20048;-68
2021/03/13 06:56:31;;;;;;;34.60;14.02;;;;;;;2.60;87.89;98938.00;5053901;28;20067;-68
2021/03/13 06:58:57;;;;;;;26.90;12.63;;;;;;;2.67;87.71;98931.13;5071118;28;20040;-68
2021/03/13 07:01:27;;;;;;;24.98;13.27;;;;;;;2.71;87.88;98929.84;5071326;28;20357;-69
2021/03/13 07:03:53;;;;;;;28.02;13.00;;;;;;;2.73;87.50;98926.06;5071087;28;20037;-68
2021/03/13 07:06:19;;;;;;;31.70;12.70;;;;;;;2.80;87.36;98918.38;5071305;28;20032;-69
2021/03/13 07:08:46;;;;;;;34.28;14.23;;;;;;;2.88;87.41;98912.28;5070988;28;20032;-69
2021/03/13 07:11:11;;;;;;;30.80;13.57;;;;;;;2.92;87.04;98898.66;5053863;28;20559;-69
2021/03/13 07:13:41;;;;;;;28.90;12.23;;;;;;;2.94;87.02;98891.41;5071255;28;20147;-69
2021/03/13 07:16:26;;;;;;;30.30;14.20;;;;;;;2.98;87.20;98891.94;5071271;28;20476;-69
2021/03/13 07:18:53;;;;;;;32.47;14.77;;;;;;;3.02;86.77;98889.78;5070932;28;20627;-68
2021/03/13 07:21:20;;;;;;;28.77;13.13;;;;;;;3.08;86.73;98875.97;5053465;28;20044;-68
2021/03/13 07:23:56;;;;;;;25.23;13.57;;;;;;;3.09;86.85;98885.53;5053233;28;20511;-69
2021/03/13 07:26:25;;;;;;;27.90;12.77;;;;;;;3.12;86.86;98872.84;5053451;28;20036;-69
2021/03/13 07:28:56;;;;;;;26.48;12.75;;;;;;;3.17;86.88;98860.00;5070728;28;20372;-69
2021/03/13 07:31:22;;;;;;;30.98;13.65;;;;;;;3.20;86.96;98869.41;5070129;28;20110;-69
2021/03/13 07:33:48;;;;;;;31.60;15.07;;;;;;;3.17;87.13;98860.00;5036628;28;20484;-69
2021/03/13 07:36:18;;;;;;;29.35;12.50;;;;;;;3.09;87.43;98851.25;5071043;28;20042;-69
2021/03/13 07:38:46;;;;;;;36.13;14.85;;;;;;;3.09;87.92;98851.25;5070746;28;20029;-69
2021/03/13 07:41:17;;;;;;;26.77;14.07;;;;;;;3.10;87.98;98839.72;5070930;28;20045;-69
2021/03/13 07:43:44;;;;;;;28.38;15.02;;;;;;;3.08;87.83;98834.59;5053288;28;20024;-69
2021/03/13 07:46:12;;;;;;;32.75;13.43;;;;;;;3.05;88.16;98834.94;5053244;28;20033;-68
2021/03/13 07:48:38;;;;;;;27.15;13.30;;;;;;;3.10;88.39;98831.81;5070506;28;20044;-68
2021/03/13 07:51:05;;;;;;;27.33;12.68;;;;;;;3.15;88.36;98840.06;5070906;28;20040;-69
2021/03/13 07:53:34;;;;;;;22.02;11.77;;;;;;;3.14;88.50;98826.06;5053076;28;20090;-69
2021/03/13 07:56:02;;;;;;;32.65;13.00;;;;;;;3.14;89.03;98818.16;5070701;28;20094;-69
2021/03/13 07:58:28;;;;;;;27.02;11.57;;;;;;;3.21;88.72;98805.16;5070494;28;20037;-69
2021/03/13 08:00:55;;;;;;;24.42;12.50;;;;;;;3.12;89.41;98793.75;5070828;28;20033;-69
2021/03/13 08:03:27;;;;;;;29.33;12.73;;;;;;;3.19;89.36;98788.66;5070714;28;20056;-69
2021/03/13 08:05:57;;;;;;;30.90;13.43;;;;;;;3.16;89.43;98781.06;5070899;28;20036;-68
2021/03/13 08:08:35;;;;;;;25.27;10.90;;;;;;;3.17;89.38;98778.25;5070349;28;20052;-68
2021/03/13 08:11:01;;;;;;;23.13;12.60;;;;;;;3.13;89.75;98762.94;5070693;28;20661;-69
2021/03/13 08:13:26;;;;;;;21.77;10.90;;;;;;;3.14;89.73;98762.78;5052952;28;20040;-69
2021/03/13 08:16:11;;;;;;;23.57;10.63;;;;;;;3.15;89.80;98758.31;5070639;28;20313;-69
2021/03/13 08:18:49;;;;;;;25.85;11.57;;;;;;;3.13;89.57;98744.47;5070389;28;20075;-69
2021/03/13 08:21:17;;;;;;;18.65;10.38;;;;;;;3.13;89.81;98741.84;5070565;28;20037;-68
2021/03/13 08:23:51;;;;;;;25.33;11.85;;;;;;;3.07;89.97;98730.16;5070610;28;20040;-69
2021/03/13 08:26:21;;;;;;;21.23;9.93;;;;;;;3.04;89.91;98727.81;5070235;28;20036;-69
2021/03/13 08:28:50;;;;;;;15.38;8.40;;;;;;;3.00;89.67;98715.97;5052744;28;20126;-68
2021/03/13 08:31:33;;;;;;;12.77;7.95;;;;;;;2.98;89.18;98714.47;5070303;28;20029;-68
2021/03/13 08:34:20;;;;;;;16.00;6.75;;;;;;;2.90;89.30;98704.72;5070464;28;20055;-69
2021/03/13 08:36:50;;;;;;;15.35;7.55;;;;;;;2.85;89.71;98692.03;5070494;28;20119;-64
2021/03/13 08:39:32;;;;;;;13.23;6.95;;;;;;;2.78;90.11;98690.22;5070221;28;20111;-64
2021/03/13 08:41:58;;;;;;;17.17;7.90;;;;;;;2.73;89.75;98682.81;5054257;28;20076;-64
2021/03/13 08:44:29;;;;;;;9.10;4.55;;;;;;;2.71;89.16;98668.97;5074042;28;20066;-64
2021/03/13 08:47:12;;;;;;;11.38;5.50;;;;;;;2.66;89.70;98655.47;5073659;28;20050;-64
2021/03/13 08:49:40;;;;;;;7.90;4.95;;;;;;;2.65;89.62;98638.84;5073401;28;20087;-64
2021/03/13 08:52:05;;;;;;;7.82;4.93;;;;;;;2.68;89.40;98635.06;5073774;28;20032;-64
2021/03/13 08:54:37;;;;;;;10.03;5.40;;;;;;;2.65;89.77;98615.13;5073679;28;20041;-64
2021/03/13 08:57:03;;;;;;;7.63;4.43;;;;;;;2.69;89.87;98607.69;5073717;28;20045;-64
2021/03/13 08:59:28;;;;;;;7.32;4.00;;;;;;;2.69;89.55;98618.25;5073392;28;20377;-64
2021/03/13 09:02:01;;;;;;;8.60;4.07;;;;;;;2.72;89.72;98604.75;5055482;28;20103;-64
2021/03/13 09:04:29;;;;;;;7.00;3.47;;;;;;;2.70;90.29;98599.66;5073660;28;20036;-64
2021/03/13 09:06:54;;;;;;;7.65;4.00;;;;;;;2.69;90.02;98592.75;5073461;28;20024;-64
2021/03/13 09:09:21;;;;;;;10.43;3.83;;;;;;;2.69;90.16;98591.91;5073256;28;20473;-64
2021/03/13 09:11:55;;;;;;;7.25;3.58;;;;;;;2.71;89.77;98585.47;5073478;28;20509;-64
2021/03/13 09:14:21;;;;;;;9.73;3.67;;;;;;;2.74;89.99;98584.34;5073393;28;20025;-64
2021/03/13 09:16:46;;;;;;;5.30;3.40;;;;;;;2.75;90.06;98599.97;5055878;28;20078;-69
2021/03/13 09:19:15;;;;;;;7.23;3.63;;;;;;;2.78;89.68;98574.28;5055464;28;20571;-69
2021/03/13 09:21:49;;;;;;;4.45;2.85;;;;;;;2.80;89.97;98564.41;5073322;28;20078;-69
2021/03/13 09:24:17;;;;;;;5.13;2.70;;;;;;;2.80;90.06;98554.69;5039000;28;20056;-69
2021/03/13 09:26:46;;;;;;;5.25;2.38;;;;;;;2.84;89.73;98540.19;5073161;28;20062;-69
2021/03/13 09:29:12;;;;;;;3.95;2.85;;;;;;;2.84;89.56;98532.28;5072703;28;20048;-69
2021/03/13 09:31:37;;;;;;;7.20;2.43;;;;;;;2.86;89.60;98540.84;5038847;28;20119;-69
2021/03/13 09:34:13;;;;;;;4.77;1.90;;;;;;;2.84;89.77;98527.00;5055368;28;20064;-69
2021/03/13 09:36:39;;;;;;;5.63;2.72;;;;;;;2.87;89.94;98510.84;5072875;28;20085;-69
2021/03/13 09:39:04;;;;;;;4.77;2.53;;;;;;;2.95;90.13;98520.56;5038538;28;20052;-69
2021/03/13 09:41:30;;;;;;;4.55;3.00;;;;;;;2.93;90.09;98519.91;5072896;28;20042;-69
2021/03/13 09:43:55;;;;;;;2.40;1.67;;;;;;;2.97;89.77;98513.28;5055198;28;20350;-69
2021/03/13 09:46:20;;;;;;;5.53;2.63;;;;;;;2.96;89.58;98507.22;5072751;28;20032;-68
2021/03/13 09:48:46;;;;;;;4.10;2.13;;;;;;;3.01;89.63;98497.97;5056066;28;20043;-69
2021/03/13 09:51:12;;;;;;;3.47;2.33;;;;;;;3.02;89.63;98492.53;5071987;28;20542;-69
2021/03/13 09:53:39;;;;;;;5.03;2.50;;;;;;;2.99;89.79;98497.31;5054080;28;20045;-69
2021/03/13 09:56:06;;;;;;;4.50;2.35;;;;;;;3.03;90.07;98490.72;5072716;28;20055;-68
2021/03/13 09:58:31;;;;;;;3.55;2.13;;;;;;;3.04;89.91;98495.00;5071251;28;20114;-69
2021/03/13 10:00:57;;;;;;;2.60;1.73;;;;;;;3.05;90.19;98481.66;5071446;28;20126;-69
2021/03/13 10:03:22;;;;;;;5.97;2.43;;;;;;;3.16;89.85;98496.28;5072426;28;20036;-69
2021/03/13 10:05:53;;;;;;;2.43;1.73;;;;;;;3.16;89.86;98489.19;5072548;28;20039;-69
2021/03/13 10:08:19;;;;;;;3.90;1.73;;;;;;;3.23;90.05;98488.50;5072044;28;20528;-69
2021/03/13 10:10:47;;;;;;;3.13;2.13;;;;;;;3.21;90.30;98475.50;5071501;28;20119;-69
2021/03/13 10:13:14;;;;;;;4.47;2.30;;;;;;;3.25;90.56;98481.25;5071217;28;20189;-69
2021/03/13 10:15:40;;;;;;;7.15;2.75;;;;;;;3.29;90.64;98488.66;5054439;28;20036;-69
2021/03/13 10:18:16;;;;;;;3.97;2.42;;;;;;;3.31;90.87;98497.22;5071851;28;20044;-69
2021/03/13 10:20:50;;;;;;;7.13;2.63;;;;;;;3.29;90.90;98493.91;5071272;28;20040;-70
2021/03/13 10:23:37;;;;;;;3.65;2.47;;;;;;;3.32;91.07;98488.28;5072039;28;20107;-64
2021/03/13 10:26:08;;;;;;;3.40;2.13;;;;;;;3.38;91.17;98470.97;5072037;28;20378;-64
2021/03/13 10:28:36;;;;;;;2.83;2.17;;;;;;;3.41;91.04;98465.34;5071558;28;20515;-64
2021/03/13 10:31:05;;;;;;;3.65;1.75;;;;;;;3.49;90.24;98462.69;5054457;28;20122;-64
2021/03/13 10:33:32;;;;;;;8.32;3.00;;;;;;;3.62;90.17;98454.19;5070884;28;20087;-64
2021/03/13 10:35:57;;;;;;;;;;;;;;;3.63;90.17;98453.22;5071502;28;20040;-64
2021/03/13 10:38:23;;;;;;;3.42;1.60;;;;;;;3.69;89.79;98459.59;5071471;28;19927;-64
2021/03/13 10:40:50;;;;;;;4.17;2.30;;;;;;;3.87;89.39;98444.31;5070850;28;20051;-65
2021/03/13 10:43:19;;;;;;;4.63;2.03;;;;;;;3.98;88.79;98446.53;5071569;28;20033;-64
2021/03/13 10:46:10;;;;;;;7.22;2.00;;;;;;;4.17;87.78;98455.00;5054045;28;20040;-65
2021/03/13 10:48:56;;;;;;;2.65;2.00;;;;;;;4.26;87.59;98438.09;5070295;28;20361;-65
2021/03/13 10:51:41;;;;;;;5.95;2.40;;;;;;;4.55;87.32;98442.59;5053426;28;20045;-64
2021/03/13 10:54:20;;;;;;;7.88;2.95;;;;;;;4.53;87.57;98447.22;5037349;28;20039;-65
2021/03/13 10:56:46;;;;;;;6.28;3.05;;;;;;;4.76;85.65;98452.47;5071582;28;20086;-65
2021/03/13 10:59:12;;;;;;;4.85;2.58;;;;;;;5.31;85.86;98438.94;5053593;28;20064;-65
2021/03/13 11:01:42;;;;;;;5.57;2.78;;;;;;;5.59;83.58;98436.41;5071515;28;20032;-65
2021/03/13 11:04:07;;;;;;;2.40;2.10;;;;;;;6.39;82.13;98430.09;5071292;28;20036;-65
2021/03/13 11:06:34;;;;;;;4.07;2.47;;;;;;;6.14;80.60;98429.66;5071484;28;20032;-65
2021/03/13 11:09:05;;;;;;;2.33;1.90;;;;;;;6.45;81.55;98412.59;5071169;28;20071;-65
2021/03/13 11:11:30;;;;;;;5.15;1.63;;;;;;;6.67;80.05;98406.22;5053703;28;20103;-65
2021/03/13 11:13:56;;;;;;;6.03;1.95;;;;;;;6.50;80.11;98404.88;5053539;28;20485;-63
2021/03/13 11:16:22;;;;;;;2.87;1.83;;;;;;;7.02;79.80;98403.53;5071279;28;20048;-63
2021/03/13 11:18:49;;;;;;;3.08;1.58;;;;;;;7.05;75.88;98402.34;5070928;28;20043;-63
2021/03/13 11:21:15;;;;;;;1.80;1.65;;;;;;;7.16;76.76;98397.28;5071225;28;20028;-64
2021/03/13 11:23:40;;;;;;;1.73;1.30;;;;;;;7.55;77.36;98398.44;5053561;28;20032;-63
2021/03/13 11:26:05;;;;;;;3.83;2.13;;;;;;;8.08;75.90;98404.84;5053496;28;20052;-64
2021/03/13 11:28:31;;;;;;;1.40;1.30;;;;;;;7.69;72.82;98390.50;5070725;28;20051;-64
2021/03/13 11:30:56;;;;;;;4.50;1.80;;;;;;;8.24;74.56;98393.81;5071146;28;20115;-63
2021/03/13 11:33:21;;;;;;;5.07;1.97;;;;;;;8.64;72.98;98381.34;5053451;28;20071;-64
2021/03/13 11:35:47;;;;;;;1.00;0.80;;;;;;;8.54;70.60;98388.09;5053444;28;20040;-63
2021/03/13 11:38:12;;;;;;;2.10;1.33;;;;;;;8.17;71.96;98385.00;5053216;28;20051;-64
2021/03/13 11:40:38;;;;;;;5.37;1.57;;;;;;;7.61;74.38;98387.00;5053284;28;20029;-64
2021/03/13 11:43:03;;;;;;;8.77;1.80;;;;;;;6.72;75.03;98398.50;5070921;28;20032;-64
2021/03/13 11:45:29;;;;;;;4.63;0.93;;;;;;;6.81;75.62;98416.88;5053387;28;20082;-64